sensor_id;sensor_type;location;lat;lon;timestamp;pressure;altitude;pressure_sealevel;temperature;humidity
19510;BME280;9896;42.486;26.506;2022-07-24T00:01:24;99800.56;;;21.27;72.13
19510;BME280;9896;42.486;26.506;2022-07-24T00:03:50;99794.53;;;21.36;70.96
19510;BME280;9896;42.486;26.506;2022-07-24T00:06:15;99791.06;;;21.05;70.92
19510;BME280;9896;42.486;26.506;2022-07-24T00:08:41;99791.09;;;21.00;71.60
19510;BME280;9896;42.486;26.506;2022-07-24T00:11:06;99798.75;;;20.87;73.03
19510;BME280;9896;42.486;26.506;2022-07-24T00:13:32;99797.09;;;21.02;71.91
19510;BME280;9896;42.486;26.506;2022-07-24T00:15:58;99798.47;;;20.79;72.73
19510;BME280;9896;42.486;26.506;2022-07-24T00:18:23;99795.22;;;20.82;73.43
19510;BME280;9896;42.486;26.506;2022-07-24T00:20:48;99791.16;;;20.74;73.25
19510;BME280;9896;42.486;26.506;2022-07-24T00:23:14;99792.25;;;20.68;74.23
19510;BME280;9896;42.486;26.506;2022-07-24T00:25:40;99791.16;;;20.74;74.27
19510;BME280;9896;42.486;26.506;2022-07-24T00:28:05;99790.03;;;20.80;73.92
19510;BME280;9896;42.486;26.506;2022-07-24T00:30:31;99792.78;;;20.75;73.87
19510;BME280;9896;42.486;26.506;2022-07-24T00:32:56;99777.81;;;20.63;73.55
19510;BME280;9896;42.486;26.506;2022-07-24T00:35:22;99783.00;;;20.69;74.16
19510;BME280;9896;42.486;26.506;2022-07-24T00:37:47;99782.44;;;20.72;73.41
19510;BME280;9896;42.486;26.506;2022-07-24T00:40:14;99791.16;;;20.59;74.63
19510;BME280;9896;42.486;26.506;2022-07-24T00:42:41;99781.09;;;20.55;74.94
19510;BME280;9896;42.486;26.506;2022-07-24T00:45:08;99779.16;;;20.85;74.36
19510;BME280;9896;42.486;26.506;2022-07-24T00:47:34;99780.19;;;21.00;73.50
19510;BME280;9896;42.486;26.506;2022-07-24T00:49:59;99782.97;;;20.79;74.81
19510;BME280;9896;42.486;26.506;2022-07-24T00:52:26;99779.41;;;20.79;74.86
19510;BME280;9896;42.486;26.506;2022-07-24T00:54:52;99775.66;;;20.65;74.63
19510;BME280;9896;42.486;26.506;2022-07-24T00:57:18;99778.09;;;20.51;75.46
19510;BME280;9896;42.486;26.506;2022-07-24T00:59:43;99779.22;;;20.45;75.77
19510;BME280;9896;42.486;26.506;2022-07-24T01:02:09;99765.03;;;20.43;75.07
19510;BME280;9896;42.486;26.506;2022-07-24T01:04:34;99772.94;;;20.34;76.65
19510;BME280;9896;42.486;26.506;2022-07-24T01:07:00;99766.97;;;20.37;75.99
19510;BME280;9896;42.486;26.506;2022-07-24T01:09:25;99769.13;;;20.30;76.23
19510;BME280;9896;42.486;26.506;2022-07-24T01:11:51;99766.16;;;20.32;77.00
19510;BME280;9896;42.486;26.506;2022-07-24T01:14:17;99762.28;;;20.18;77.58
19510;BME280;9896;42.486;26.506;2022-07-24T01:16:43;99762.31;;;20.23;77.32
19510;BME280;9896;42.486;26.506;2022-07-24T01:19:09;99768.84;;;20.17;78.14
19510;BME280;9896;42.486;26.506;2022-07-24T01:21:34;99763.41;;;20.12;77.93
19510;BME280;9896;42.486;26.506;2022-07-24T01:24:00;99759.56;;;20.18;77.98
19510;BME280;9896;42.486;26.506;2022-07-24T01:26:26;99762.31;;;20.38;77.34
19510;BME280;9896;42.486;26.506;2022-07-24T01:28:52;99757.66;;;20.69;77.24
19510;BME280;9896;42.486;26.506;2022-07-24T01:31:18;99767.41;;;20.90;75.90
19510;BME280;9896;42.486;26.506;2022-07-24T01:33:43;99757.34;;;20.91;75.41
19510;BME280;9896;42.486;26.506;2022-07-24T01:36:09;99762.56;;;20.47;76.77
19510;BME280;9896;42.486;26.506;2022-07-24T01:38:34;99750.06;;;20.20;78.36
19510;BME280;9896;42.486;26.506;2022-07-24T01:41:00;99759.63;;;20.33;78.42
19510;BME280;9896;42.486;26.506;2022-07-24T01:43:25;99745.19;;;20.32;78.74
19510;BME280;9896;42.486;26.506;2022-07-24T01:45:51;99742.97;;;20.24;78.23
19510;BME280;9896;42.486;26.506;2022-07-24T01:48:16;99746.53;;;20.00;78.83
19510;BME280;9896;42.486;26.506;2022-07-24T01:50:42;99738.06;;;19.86;78.96
19510;BME280;9896;42.486;26.506;2022-07-24T01:53:07;99750.88;;;20.01;78.62
19510;BME280;9896;42.486;26.506;2022-07-24T01:55:33;99748.97;;;19.96;78.45
19510;BME280;9896;42.486;26.506;2022-07-24T01:57:58;99751.66;;;19.86;79.70
19510;BME280;9896;42.486;26.506;2022-07-24T02:00:24;99742.69;;;19.75;79.34
19510;BME280;9896;42.486;26.506;2022-07-24T02:02:50;99749.50;;;19.93;78.74
19510;BME280;9896;42.486;26.506;2022-07-24T02:05:15;99743.50;;;19.86;78.92
19510;BME280;9896;42.486;26.506;2022-07-24T02:07:42;99746.25;;;19.91;79.06
19510;BME280;9896;42.486;26.506;2022-07-24T02:10:08;99742.97;;;19.84;78.97
19510;BME280;9896;42.486;26.506;2022-07-24T02:12:34;99741.06;;;19.89;78.54
19510;BME280;9896;42.486;26.506;2022-07-24T02:15:00;99748.97;;;19.91;78.23
19510;BME280;9896;42.486;26.506;2022-07-24T02:17:25;99751.69;;;20.16;77.42
19510;BME280;9896;42.486;26.506;2022-07-24T02:19:51;99745.44;;;19.95;78.13
19510;BME280;9896;42.486;26.506;2022-07-24T02:22:16;99744.88;;;19.99;78.38
19510;BME280;9896;42.486;26.506;2022-07-24T02:24:43;99745.69;;;19.94;79.15
19510;BME280;9896;42.486;26.506;2022-07-24T02:27:08;99744.59;;;19.90;79.42
19510;BME280;9896;42.486;26.506;2022-07-24T02:29:34;99741.31;;;19.93;79.21
19510;BME280;9896;42.486;26.506;2022-07-24T02:31:59;99742.97;;;19.79;79.92
19510;BME280;9896;42.486;26.506;2022-07-24T02:34:25;99740.50;;;19.72;80.26
19510;BME280;9896;42.486;26.506;2022-07-24T02:36:51;99738.88;;;19.76;80.31
19510;BME280;9896;42.486;26.506;2022-07-24T02:39:16;99737.78;;;19.72;80.54
19510;BME280;9896;42.486;26.506;2022-07-24T02:41:42;99741.59;;;19.86;80.09
19510;BME280;9896;42.486;26.506;2022-07-24T02:44:07;99739.41;;;19.78;80.25
19510;BME280;9896;42.486;26.506;2022-07-24T02:46:33;99742.66;;;19.65;80.99
19510;BME280;9896;42.486;26.506;2022-07-24T02:48:58;99752.16;;;19.58;80.76
19510;BME280;9896;42.486;26.506;2022-07-24T02:51:24;99749.78;;;19.76;79.92
19510;BME280;9896;42.486;26.506;2022-07-24T02:53:49;99739.66;;;19.62;79.97
19510;BME280;9896;42.486;26.506;2022-07-24T02:56:15;99740.75;;;19.51;79.77
19510;BME280;9896;42.486;26.506;2022-07-24T02:58:40;99747.00;;;19.51;79.43
19510;BME280;9896;42.486;26.506;2022-07-24T03:01:06;99740.75;;;19.56;79.75
19510;BME280;9896;42.486;26.506;2022-07-24T03:03:31;99742.56;;;19.40;80.39
19510;BME280;9896;42.486;26.506;2022-07-24T03:05:57;99744.19;;;19.36;80.68
19510;BME280;9896;42.486;26.506;2022-07-24T03:08:22;99742.22;;;19.16;81.48
19510;BME280;9896;42.486;26.506;2022-07-24T03:10:48;99741.69;;;19.24;81.39
19510;BME280;9896;42.486;26.506;2022-07-24T03:13:13;99736.94;;;19.62;79.25
19510;BME280;9896;42.486;26.506;2022-07-24T03:15:39;99732.59;;;19.61;78.65
19510;BME280;9896;42.486;26.506;2022-07-24T03:18:05;99738.47;;;19.32;81.92
19510;BME280;9896;42.486;26.506;2022-07-24T03:20:30;99727.28;;;19.24;84.30
19510;BME280;9896;42.486;26.506;2022-07-24T03:22:56;99743.09;;;19.27;82.20
19510;BME280;9896;42.486;26.506;2022-07-24T03:25:22;99751.56;;;19.35;82.69
19510;BME280;9896;42.486;26.506;2022-07-24T03:27:49;99744.16;;;19.26;82.92
19510;BME280;9896;42.486;26.506;2022-07-24T03:30:16;99733.94;;;19.53;83.13
19510;BME280;9896;42.486;26.506;2022-07-24T03:32:42;99728.50;;;19.53;83.33
19510;BME280;9896;42.486;26.506;2022-07-24T03:35:08;99750.44;;;19.36;84.27
19510;BME280;9896;42.486;26.506;2022-07-24T03:37:34;99745.09;;;19.52;82.97
19510;BME280;9896;42.486;26.506;2022-07-24T03:39:59;99744.53;;;19.49;83.23
19510;BME280;9896;42.486;26.506;2022-07-24T03:42:25;99741.56;;;19.61;82.83
19510;BME280;9896;42.486;26.506;2022-07-24T03:44:50;99736.41;;;19.70;82.19
19510;BME280;9896;42.486;26.506;2022-07-24T03:47:16;99742.41;;;19.67;81.88
19510;BME280;9896;42.486;26.506;2022-07-24T03:49:42;99747.03;;;19.86;81.04
19510;BME280;9896;42.486;26.506;2022-07-24T03:52:07;99741.31;;;19.63;81.94
19510;BME280;9896;42.486;26.506;2022-07-24T03:54:33;99734.50;;;19.60;82.08
19510;BME280;9896;42.486;26.506;2022-07-24T03:56:58;99747.00;;;19.61;82.13
19510;BME280;9896;42.486;26.506;2022-07-24T03:59:24;99741.56;;;19.61;82.05
19510;BME280;9896;42.486;26.506;2022-07-24T04:01:49;99737.28;;;20.01;80.81
19510;BME280;9896;42.486;26.506;2022-07-24T04:04:15;99738.34;;;19.79;80.96
19510;BME280;9896;42.486;26.506;2022-07-24T04:06:41;99737.50;;;19.74;82.26
19510;BME280;9896;42.486;26.506;2022-07-24T04:09:07;99744.59;;;20.05;81.47
19510;BME280;9896;42.486;26.506;2022-07-24T04:11:32;99733.44;;;19.76;82.56
19510;BME280;9896;42.486;26.506;2022-07-24T04:13:58;99741.59;;;20.02;81.93
19510;BME280;9896;42.486;26.506;2022-07-24T04:16:24;99743.81;;;20.35;80.17
19510;BME280;9896;42.486;26.506;2022-07-24T04:18:50;99750.88;;;20.56;78.88
19510;BME280;9896;42.486;26.506;2022-07-24T04:21:16;99750.56;;;20.78;77.90
19510;BME280;9896;42.486;26.506;2022-07-24T04:23:41;99744.28;;;20.82;77.63
19510;BME280;9896;42.486;26.506;2022-07-24T04:26:07;99749.34;;;21.04;76.45
19510;BME280;9896;42.486;26.506;2022-07-24T04:28:32;99753.78;;;20.90;76.39
19510;BME280;9896;42.486;26.506;2022-07-24T04:30:58;99757.25;;;21.16;75.34
19510;BME280;9896;42.486;26.506;2022-07-24T04:33:23;99757.91;;;20.77;77.65
19510;BME280;9896;42.486;26.506;2022-07-24T04:35:49;99753.53;;;20.76;77.23
19510;BME280;9896;42.486;26.506;2022-07-24T04:38:14;99767.22;;;20.51;79.50
19510;BME280;9896;42.486;26.506;2022-07-24T04:40:41;99756.81;;;20.73;77.87
19510;BME280;9896;42.486;26.506;2022-07-24T04:43:07;99751.59;;;20.87;77.13
19510;BME280;9896;42.486;26.506;2022-07-24T04:45:32;99757.00;;;21.12;76.21
19510;BME280;9896;42.486;26.506;2022-07-24T04:47:58;99758.16;;;20.76;77.23
19510;BME280;9896;42.486;26.506;2022-07-24T04:50:23;99759.53;;;20.78;77.57
19510;BME280;9896;42.486;26.506;2022-07-24T04:52:49;99758.94;;;20.92;75.92
19510;BME280;9896;42.486;26.506;2022-07-24T04:55:14;99758.91;;;21.07;74.35
19510;BME280;9896;42.486;26.506;2022-07-24T04:57:40;99755.06;;;21.18;73.61
19510;BME280;9896;42.486;26.506;2022-07-24T05:00:08;99761.25;;;21.33;72.97
19510;BME280;9896;42.486;26.506;2022-07-24T05:02:34;99759.22;;;21.59;71.94
19510;BME280;9896;42.486;26.506;2022-07-24T05:05:00;99764.13;;;21.62;72.38
19510;BME280;9896;42.486;26.506;2022-07-24T05:07:26;99760.59;;;21.57;71.65
19510;BME280;9896;42.486;26.506;2022-07-24T05:09:52;99756.13;;;22.15;68.05
19510;BME280;9896;42.486;26.506;2022-07-24T05:12:17;99755.88;;;22.11;68.04
19510;BME280;9896;42.486;26.506;2022-07-24T05:14:43;99768.38;;;22.80;64.38
19510;BME280;9896;42.486;26.506;2022-07-24T05:17:08;99751.72;;;23.24;60.88
19510;BME280;9896;42.486;26.506;2022-07-24T05:19:34;99754.63;;;23.33;61.53
19510;BME280;9896;42.486;26.506;2022-07-24T05:21:59;99750.44;;;23.16;61.95
19510;BME280;9896;42.486;26.506;2022-07-24T05:24:25;99751.22;;;23.22;61.18
19510;BME280;9896;42.486;26.506;2022-07-24T05:26:51;99748.91;;;23.29;61.35
19510;BME280;9896;42.486;26.506;2022-07-24T05:29:16;99753.56;;;23.29;62.04
19510;BME280;9896;42.486;26.506;2022-07-24T05:31:42;99751.69;;;23.48;62.18
19510;BME280;9896;42.486;26.506;2022-07-24T05:34:08;99742.44;;;23.44;62.13
19510;BME280;9896;42.486;26.506;2022-07-24T05:36:34;99744.88;;;23.27;62.33
19510;BME280;9896;42.486;26.506;2022-07-24T05:38:59;99748.44;;;23.65;61.11
19510;BME280;9896;42.486;26.506;2022-07-24T05:41:24;99758.81;;;23.86;59.54
19510;BME280;9896;42.486;26.506;2022-07-24T05:43:50;99742.88;;;24.07;57.87
19510;BME280;9896;42.486;26.506;2022-07-24T05:46:15;99749.66;;;23.58;59.61
19510;BME280;9896;42.486;26.506;2022-07-24T05:48:41;99743.13;;;23.54;59.62
19510;BME280;9896;42.486;26.506;2022-07-24T05:51:06;99747.25;;;24.08;58.12
19510;BME280;9896;42.486;26.506;2022-07-24T05:53:32;99740.44;;;24.05;56.15
19510;BME280;9896;42.486;26.506;2022-07-24T05:55:57;99737.13;;;23.90;56.58
19510;BME280;9896;42.486;26.506;2022-07-24T05:58:23;99743.31;;;24.14;55.56
19510;BME280;9896;42.486;26.506;2022-07-24T06:00:48;99742.56;;;24.27;54.72
19510;BME280;9896;42.486;26.506;2022-07-24T06:03:14;99740.38;;;24.43;54.47
19510;BME280;9896;42.486;26.506;2022-07-24T06:05:39;99746.19;;;24.55;53.47
19510;BME280;9896;42.486;26.506;2022-07-24T06:08:05;99743.84;;;25.44;51.35
19510;BME280;9896;42.486;26.506;2022-07-24T06:10:31;99747.28;;;25.14;51.09
19510;BME280;9896;42.486;26.506;2022-07-24T06:12:58;99737.94;;;25.64;49.71
19510;BME280;9896;42.486;26.506;2022-07-24T06:15:24;99730.50;;;25.65;49.66
19510;BME280;9896;42.486;26.506;2022-07-24T06:17:49;99727.78;;;25.65;50.04
19510;BME280;9896;42.486;26.506;2022-07-24T06:20:15;99723.88;;;26.02;48.95
19510;BME280;9896;42.486;26.506;2022-07-24T06:22:43;99724.97;;;26.01;48.04
19510;BME280;9896;42.486;26.506;2022-07-24T06:25:09;99727.25;;;25.99;46.56
19510;BME280;9896;42.486;26.506;2022-07-24T06:27:45;99723.16;;;26.18;46.14
19510;BME280;9896;42.486;26.506;2022-07-24T06:30:19;99714.66;;;26.20;46.34
19510;BME280;9896;42.486;26.506;2022-07-24T06:32:45;99707.47;;;26.32;46.21
19510;BME280;9896;42.486;26.506;2022-07-24T06:35:11;99717.44;;;26.59;45.08
19510;BME280;9896;42.486;26.506;2022-07-24T06:37:37;99717.78;;;26.66;44.95
19510;BME280;9896;42.486;26.506;2022-07-24T06:40:04;99720.88;;;26.65;44.65
19510;BME280;9896;42.486;26.506;2022-07-24T06:42:30;99716.84;;;26.71;45.58
19510;BME280;9896;42.486;26.506;2022-07-24T06:44:55;99718.94;;;27.05;44.44
19510;BME280;9896;42.486;26.506;2022-07-24T06:47:20;99714.59;;;26.42;45.50
19510;BME280;9896;42.486;26.506;2022-07-24T06:49:46;99702.31;;;27.36;44.54
19510;BME280;9896;42.486;26.506;2022-07-24T06:52:11;99701.22;;;27.45;43.59
19510;BME280;9896;42.486;26.506;2022-07-24T06:54:37;99698.75;;;27.44;42.77
19510;BME280;9896;42.486;26.506;2022-07-24T06:57:02;99694.88;;;27.45;42.91
19510;BME280;9896;42.486;26.506;2022-07-24T06:59:29;99693.47;;;27.64;42.45
19510;BME280;9896;42.486;26.506;2022-07-24T07:01:54;99692.34;;;27.65;42.28
19510;BME280;9896;42.486;26.506;2022-07-24T07:04:21;99692.50;;;27.69;42.62
19510;BME280;9896;42.486;26.506;2022-07-24T07:06:46;99697.34;;;27.81;42.32
19510;BME280;9896;42.486;26.506;2022-07-24T07:09:12;99687.28;;;27.76;41.89
19510;BME280;9896;42.486;26.506;2022-07-24T07:11:38;99691.47;;;28.25;40.78
19510;BME280;9896;42.486;26.506;2022-07-24T07:14:04;99679.72;;;28.45;40.50
19510;BME280;9896;42.486;26.506;2022-07-24T07:16:30;99686.31;;;28.61;40.10
19510;BME280;9896;42.486;26.506;2022-07-24T07:18:55;99686.75;;;28.81;39.23
19510;BME280;9896;42.486;26.506;2022-07-24T07:21:21;99683.34;;;28.84;39.70
19510;BME280;9896;42.486;26.506;2022-07-24T07:23:46;99679.41;;;28.93;39.32
19510;BME280;9896;42.486;26.506;2022-07-24T07:26:12;99679.56;;;28.88;39.33
19510;BME280;9896;42.486;26.506;2022-07-24T07:28:38;99675.97;;;28.96;39.67
19510;BME280;9896;42.486;26.506;2022-07-24T07:31:03;99676.88;;;29.09;39.43
19510;BME280;9896;42.486;26.506;2022-07-24T07:33:29;99676.25;;;29.24;38.68
19510;BME280;9896;42.486;26.506;2022-07-24T07:35:54;99665.88;;;29.30;38.48
19510;BME280;9896;42.486;26.506;2022-07-24T07:38:20;99658.13;;;29.15;39.18
19510;BME280;9896;42.486;26.506;2022-07-24T07:40:46;99656.34;;;29.60;38.37
19510;BME280;9896;42.486;26.506;2022-07-24T07:43:12;99663.19;;;29.42;38.81
19510;BME280;9896;42.486;26.506;2022-07-24T07:45:38;99660.69;;;29.49;37.24
19510;BME280;9896;42.486;26.506;2022-07-24T07:48:03;99653.31;;;29.53;37.70
19510;BME280;9896;42.486;26.506;2022-07-24T07:50:29;99651.44;;;29.66;37.88
19510;BME280;9896;42.486;26.506;2022-07-24T07:52:55;99649.28;;;30.04;37.87
19510;BME280;9896;42.486;26.506;2022-07-24T07:55:20;99650.47;;;30.15;37.46
19510;BME280;9896;42.486;26.506;2022-07-24T07:57:46;99655.00;;;30.20;36.42
19510;BME280;9896;42.486;26.506;2022-07-24T08:00:12;99639.13;;;30.53;35.99
19510;BME280;9896;42.486;26.506;2022-07-24T08:02:38;99646.16;;;29.93;36.11
19510;BME280;9896;42.486;26.506;2022-07-24T08:05:04;99638.53;;;30.35;35.71
19510;BME280;9896;42.486;26.506;2022-07-24T08:07:30;99649.22;;;30.37;34.68
19510;BME280;9896;42.486;26.506;2022-07-24T08:09:56;99640.88;;;30.13;35.63
19510;BME280;9896;42.486;26.506;2022-07-24T08:12:21;99639.56;;;30.31;35.51
19510;BME280;9896;42.486;26.506;2022-07-24T08:14:47;99643.06;;;30.52;34.90
19510;BME280;9896;42.486;26.506;2022-07-24T08:17:12;99641.78;;;30.86;34.65
19510;BME280;9896;42.486;26.506;2022-07-24T08:19:38;99640.75;;;30.90;34.48
19510;BME280;9896;42.486;26.506;2022-07-24T08:22:04;99641.69;;;31.07;34.85
19510;BME280;9896;42.486;26.506;2022-07-24T08:24:30;99632.78;;;31.13;33.47
19510;BME280;9896;42.486;26.506;2022-07-24T08:26:58;99638.47;;;31.05;33.50
19510;BME280;9896;42.486;26.506;2022-07-24T08:29:24;99634.66;;;30.85;33.25
19510;BME280;9896;42.486;26.506;2022-07-24T08:31:50;99626.22;;;31.06;33.00
19510;BME280;9896;42.486;26.506;2022-07-24T08:34:16;99627.28;;;31.41;32.70
19510;BME280;9896;42.486;26.506;2022-07-24T08:36:41;99632.13;;;31.04;33.14
19510;BME280;9896;42.486;26.506;2022-07-24T08:39:11;99622.22;;;31.31;32.89
19510;BME280;9896;42.486;26.506;2022-07-24T08:41:38;99629.19;;;31.65;32.60
19510;BME280;9896;42.486;26.506;2022-07-24T08:44:04;99625.41;;;32.01;32.18
19510;BME280;9896;42.486;26.506;2022-07-24T08:46:31;99615.63;;;32.19;31.96
19510;BME280;9896;42.486;26.506;2022-07-24T08:48:57;99625.16;;;32.06;32.28
19510;BME280;9896;42.486;26.506;2022-07-24T08:51:33;99625.13;;;32.18;31.16
19510;BME280;9896;42.486;26.506;2022-07-24T08:54:01;99619.06;;;32.00;31.59
19510;BME280;9896;42.486;26.506;2022-07-24T08:56:28;99618.16;;;31.96;31.91
19510;BME280;9896;42.486;26.506;2022-07-24T08:58:55;99610.25;;;32.10;31.42
19510;BME280;9896;42.486;26.506;2022-07-24T09:01:21;99605.97;;;32.44;31.26
19510;BME280;9896;42.486;26.506;2022-07-24T09:03:47;99600.22;;;32.84;31.04
19510;BME280;9896;42.486;26.506;2022-07-24T09:06:14;99598.06;;;33.12;30.36
19510;BME280;9896;42.486;26.506;2022-07-24T09:09:01;99598.69;;;33.22;29.98
19510;BME280;9896;42.486;26.506;2022-07-24T09:11:28;99594.09;;;33.29;30.26
19510;BME280;9896;42.486;26.506;2022-07-24T09:14:00;99584.47;;;32.72;30.07
19510;BME280;9896;42.486;26.506;2022-07-24T09:16:44;99584.38;;;32.69;30.17
19510;BME280;9896;42.486;26.506;2022-07-24T09:19:10;99590.13;;;32.95;30.00
19510;BME280;9896;42.486;26.506;2022-07-24T09:21:38;99578.50;;;33.25;29.90
19510;BME280;9896;42.486;26.506;2022-07-24T09:24:16;99584.41;;;33.61;29.52
19510;BME280;9896;42.486;26.506;2022-07-24T09:29:13;99580.59;;;33.50;29.65
19510;BME280;9896;42.486;26.506;2022-07-24T09:31:58;99583.16;;;33.59;29.92
19510;BME280;9896;42.486;26.506;2022-07-24T09:34:26;99572.75;;;33.94;28.38
19510;BME280;9896;42.486;26.506;2022-07-24T09:37:03;99554.56;;;33.78;28.96
19510;BME280;9896;42.486;26.506;2022-07-24T09:39:31;99568.09;;;33.79;30.14
19510;BME280;9896;42.486;26.506;2022-07-24T09:41:58;99564.94;;;34.23;28.69
19510;BME280;9896;42.486;26.506;2022-07-24T09:44:24;99561.56;;;34.36;27.36
19510;BME280;9896;42.486;26.506;2022-07-24T09:46:58;99563.91;;;34.34;27.46
19510;BME280;9896;42.486;26.506;2022-07-24T09:49:25;99551.34;;;34.44;27.31
19510;BME280;9896;42.486;26.506;2022-07-24T09:52:07;99570.03;;;34.43;26.54
19510;BME280;9896;42.486;26.506;2022-07-24T09:54:46;99560.63;;;34.51;26.77
19510;BME280;9896;42.486;26.506;2022-07-24T10:02:27;99554.72;;;34.30;27.50
19510;BME280;9896;42.486;26.506;2022-07-24T10:04:53;99558.25;;;34.27;26.89
19510;BME280;9896;42.486;26.506;2022-07-24T10:07:21;99550.81;;;34.35;27.17
19510;BME280;9896;42.486;26.506;2022-07-24T10:09:48;99550.66;;;34.50;27.27
19510;BME280;9896;42.486;26.506;2022-07-24T10:12:20;99548.81;;;34.62;26.50
19510;BME280;9896;42.486;26.506;2022-07-24T10:14:48;99545.38;;;34.68;27.51
19510;BME280;9896;42.486;26.506;2022-07-24T10:17:15;99534.88;;;35.14;27.28
19510;BME280;9896;42.486;26.506;2022-07-24T10:19:49;99525.66;;;35.14;26.19
19510;BME280;9896;42.486;26.506;2022-07-24T10:22:17;99532.00;;;35.74;25.75
19510;BME280;9896;42.486;26.506;2022-07-24T10:24:57;99529.59;;;35.39;26.79
19510;BME280;9896;42.486;26.506;2022-07-24T10:29:53;99530.75;;;35.71;25.98
19510;BME280;9896;42.486;26.506;2022-07-24T10:32:19;99520.06;;;36.17;25.34
19510;BME280;9896;42.486;26.506;2022-07-24T10:40:20;99514.25;;;35.56;26.13
19510;BME280;9896;42.486;26.506;2022-07-24T10:45:35;99503.53;;;35.98;25.82
19510;BME280;9896;42.486;26.506;2022-07-24T10:53:30;99485.63;;;36.03;25.76
19510;BME280;9896;42.486;26.506;2022-07-24T10:59:13;99490.72;;;36.48;25.40
19510;BME280;9896;42.486;26.506;2022-07-24T11:01:43;99489.56;;;36.53;24.70
19510;BME280;9896;42.486;26.506;2022-07-24T11:07:10;99475.44;;;36.28;24.58
19510;BME280;9896;42.486;26.506;2022-07-24T11:12:32;99473.41;;;36.18;24.61
19510;BME280;9896;42.486;26.506;2022-07-24T11:15:04;99473.25;;;36.04;24.57
19510;BME280;9896;42.486;26.506;2022-07-24T11:17:48;99459.25;;;36.51;24.76
19510;BME280;9896;42.486;26.506;2022-07-24T11:20:18;99459.78;;;36.71;24.79
19510;BME280;9896;42.486;26.506;2022-07-24T11:22:48;99456.22;;;36.85;23.82
19510;BME280;9896;42.486;26.506;2022-07-24T11:25:23;99433.22;;;37.09;24.50
19510;BME280;9896;42.486;26.506;2022-07-24T11:27:54;99442.50;;;37.55;24.89
19510;BME280;9896;42.486;26.506;2022-07-24T11:30:25;99438.91;;;37.87;24.26
19510;BME280;9896;42.486;26.506;2022-07-24T11:32:51;99438.41;;;37.17;24.95
19510;BME280;9896;42.486;26.506;2022-07-24T11:35:26;99429.63;;;37.19;24.21
19510;BME280;9896;42.486;26.506;2022-07-24T11:37:52;99425.31;;;37.53;23.80
19510;BME280;9896;42.486;26.506;2022-07-24T11:40:21;99426.06;;;37.40;22.74
19510;BME280;9896;42.486;26.506;2022-07-24T11:42:54;99410.69;;;36.80;24.06
19510;BME280;9896;42.486;26.506;2022-07-24T11:45:19;99418.72;;;36.89;25.33
19510;BME280;9896;42.486;26.506;2022-07-24T11:47:45;99412.09;;;37.50;23.63
19510;BME280;9896;42.486;26.506;2022-07-24T11:50:11;99404.50;;;37.51;23.38
19510;BME280;9896;42.486;26.506;2022-07-24T11:52:39;99399.72;;;38.19;22.77
19510;BME280;9896;42.486;26.506;2022-07-24T11:55:14;99400.53;;;37.94;22.32
19510;BME280;9896;42.486;26.506;2022-07-24T11:57:41;99394.09;;;38.22;22.48
19510;BME280;9896;42.486;26.506;2022-07-24T12:00:13;99390.88;;;38.27;22.18
19510;BME280;9896;42.486;26.506;2022-07-24T12:02:44;99389.72;;;38.00;21.47
19510;BME280;9896;42.486;26.506;2022-07-24T12:05:09;99380.94;;;37.77;22.12
19510;BME280;9896;42.486;26.506;2022-07-24T12:07:35;99376.50;;;38.14;21.93
19510;BME280;9896;42.486;26.506;2022-07-24T12:10:01;99379.22;;;38.50;21.38
19510;BME280;9896;42.486;26.506;2022-07-24T12:12:29;99386.44;;;38.33;21.24
19510;BME280;9896;42.486;26.506;2022-07-24T12:15:06;99376.88;;;38.31;21.62
19510;BME280;9896;42.486;26.506;2022-07-24T12:17:34;99375.25;;;38.30;21.39
19510;BME280;9896;42.486;26.506;2022-07-24T12:20:02;99372.53;;;37.62;21.51
19510;BME280;9896;42.486;26.506;2022-07-24T12:22:31;99374.06;;;38.31;20.47
19510;BME280;9896;42.486;26.506;2022-07-24T12:24:57;99365.03;;;38.89;19.78
19510;BME280;9896;42.486;26.506;2022-07-24T12:27:44;99364.44;;;38.32;20.33
19510;BME280;9896;42.486;26.506;2022-07-24T12:30:23;99359.72;;;37.90;20.77
19510;BME280;9896;42.486;26.506;2022-07-24T12:33:04;99352.00;;;38.36;20.67
19510;BME280;9896;42.486;26.506;2022-07-24T12:35:33;99360.13;;;38.06;21.39
19510;BME280;9896;42.486;26.506;2022-07-24T12:38:01;99348.34;;;39.26;19.72
19510;BME280;9896;42.486;26.506;2022-07-24T12:40:34;99346.88;;;39.11;19.72
19510;BME280;9896;42.486;26.506;2022-07-24T12:43:10;99345.78;;;39.53;19.23
19510;BME280;9896;42.486;26.506;2022-07-24T12:45:38;99347.50;;;39.84;19.23
19510;BME280;9896;42.486;26.506;2022-07-24T12:48:20;99337.72;;;39.55;19.07
19510;BME280;9896;42.486;26.506;2022-07-24T12:51:05;99335.59;;;39.70;18.74
19510;BME280;9896;42.486;26.506;2022-07-24T12:53:35;99329.38;;;39.48;18.53
19510;BME280;9896;42.486;26.506;2022-07-24T12:56:06;99323.56;;;40.07;18.88
19510;BME280;9896;42.486;26.506;2022-07-24T12:58:59;99327.38;;;40.61;17.63
19510;BME280;9896;42.486;26.506;2022-07-24T13:01:49;99319.50;;;40.11;17.68
19510;BME280;9896;42.486;26.506;2022-07-24T13:04:17;99319.75;;;39.93;17.99
19510;BME280;9896;42.486;26.506;2022-07-24T13:06:45;99314.28;;;39.28;17.99
19510;BME280;9896;42.486;26.506;2022-07-24T13:09:12;99309.78;;;39.44;17.89
19510;BME280;9896;42.486;26.506;2022-07-24T13:11:41;99305.06;;;39.75;17.37
19510;BME280;9896;42.486;26.506;2022-07-24T13:14:08;99297.81;;;40.19;17.73
19510;BME280;9896;42.486;26.506;2022-07-24T13:16:38;99282.97;;;40.15;17.89
19510;BME280;9896;42.486;26.506;2022-07-24T13:19:04;99303.78;;;40.21;17.36
19510;BME280;9896;42.486;26.506;2022-07-24T13:21:30;99299.03;;;40.14;18.32
19510;BME280;9896;42.486;26.506;2022-07-24T13:23:56;99293.84;;;40.47;17.24
19510;BME280;9896;42.486;26.506;2022-07-24T13:26:22;99287.97;;;41.18;16.97
19510;BME280;9896;42.486;26.506;2022-07-24T13:28:48;99294.13;;;41.09;16.21
19510;BME280;9896;42.486;26.506;2022-07-24T13:31:14;99286.19;;;40.77;17.15
19510;BME280;9896;42.486;26.506;2022-07-24T13:33:40;99278.31;;;42.28;15.69